Terminal Aerodrome Forecast
Issued by NWS North Platte, NE

Home | Current Version | Previous Version | Text Only | Print | Product List | Glossary On
Versions: 1 2 3 4 5 6 7 8 9 10 11 12 13 14 15 16 17 18 19 20 21 22 23 24 25 26 27 28
000
FTUS43 KLBF 251442 AAA
TAFVTN
TAF AMD
KVTN 251442Z 2515/2612 02009KT P6SM BKN008 OVC012
     FM251800 36008KT P6SM VCSH BKN008 OVC015
     FM252200 36008KT 5SM -SHRA BKN008 OVC015
     FM260300 34005KT P6SM VCSH OVC008
     FM260600 31005KT 5SM BR BKN007=

USA.gov is the U.S. government's official web portal to all federal, state and local government web resources and services.